Date,TemperatureHighF,TemperatureAvgF,TemperatureLowF,DewpointHighF,DewpointAvgF,DewpointLowF,HumidityHigh,HumidityAvg,HumidityLow,PressureMaxIn,PressureMinIn,WindSpeedMaxMPH,WindSpeedAvgMPH,GustSpeedMaxMPH,PrecipitationSumIn
2013-1-1,59.2,45.4,34.0,40.8,26.8,6.4,75,53,17,29.97,29.53,0,0,0,0.32
2013-1-2,53.6,41.9,32.7,39.5,24.5,13.1,76,54,21,30.33,29.97,0,0,0,0.00
2013-1-3,54.5,50.2,45.9,44.0,38.9,26.2,75,66,39,30.59,30.33,0,0,0,0.08
2013-1-4,52.2,50.0,48.7,37.8,30.3,25.7,62,47,36,30.59,30.53,0,0,0,0.00
2013-1-5,50.5,48.7,46.6,38.2,31.2,26.3,72,51,39,30.53,30.47,0,0,0,0.00
2013-1-6,48.0,46.5,45.7,37.9,30.7,21.4,72,56,36,30.47,30.36,0,0,0,0.00
2013-1-7,49.6,46.1,43.7,23.7,20.1,16.0,41,35,27,30.36,30.24,0,0,0,0.00
2013-1-8,43.5,41.2,39.6,30.2,24.3,18.2,67,51,38,30.30,30.21,0,0,0,0.00
2013-1-9,44.1,41.7,39.9,36.3,25.3,14.4,75,54,32,30.21,30.00,0,0,0,0.08
2013-1-10,47.7,45.9,44.2,40.1,38.3,36.8,76,75,73,29.97,29.77,0,0,0,0.08
2013-1-11,45.9,41.1,32.7,38.2,26.1,14.3,76,58,28,30.00,29.83,0,0,0,0.04
2013-1-12,44.2,40.2,33.8,36.7,32.6,25.1,76,74,67,29.94,29.74,0,0,0,0.12
2013-1-13,41.5,39.1,31.1,34.4,23.7,5.7,76,56,32,29.91,29.74,0,0,0,0.00
2013-1-14,39.7,31.3,23.5,28.8,10.7,-2.6,76,47,19,29.94,29.56,0,0,0,0.00
2013-1-15,43.0,34.6,29.8,30.5,21.2,5.0,77,61,23,29.74,29.50,0,0,0,0.28
2013-1-16,38.5,26.6,18.9,25.2,6.9,-5.1,73,46,19,29.85,29.71,0,0,0,0.00
2013-1-17,37.6,22.8,14.2,17.8,0.8,-5.6,69,40,19,30.00,29.85,0,0,0,0.00
2013-1-18,32.5,26.5,18.1,17.9,6.4,-2.7,61,44,23,29.88,29.29,0,0,0,0.00
2013-1-19,33.1,30.4,29.1,19.2,11.9,7.6,65,46,34,29.26,29.15,0,0,0,0.00
2013-1-20,33.3,29.6,26.2,24.7,9.4,1.5,71,43,28,29.26,29.15,0,0,0,0.00
2013-1-21,41.4,34.8,32.7,27.2,20.2,9.6,77,57,28,29.44,29.21,0,0,0,0.16
2013-1-22,37.4,35.0,31.8,29.0,24.7,14.6,77,67,39,29.50,29.44,0,0,0,0.16
2013-1-23,39.7,36.9,35.8,30.9,26.9,18.2,77,68,44,29.65,29.50,0,0,0,0.00
2013-1-24,36.7,33.4,26.6,29.8,17.9,2.5,77,55,30,30.00,29.62,0,0,0,0.00
2013-1-25,33.1,28.4,25.3,6.7,3.7,-0.1,41,34,25,30.03,29.71,0,0,0,0.00
2013-1-26,44.8,33.5,29.5,28.3,13.4,4.4,76,45,28,29.85,29.65,0,0,0,0.00
2013-1-27,58.5,41.6,31.5,32.1,22.0,12.1,77,48,22,29.80,29.50,0,0,0,0.16
2013-1-28,57.0,43.2,30.0,35.6,20.1,8.0,77,47,17,29.91,29.68,0,0,0,0.00
2013-1-29,56.5,53.1,50.5,42.7,32.5,21.5,73,47,29,29.85,29.77,0,0,0,0.12
2013-1-30,62.6,54.2,42.8,45.2,26.7,9.1,69,37,17,30.09,29.71,0,0,0,0.16
2013-1-31,56.5,47.0,38.5,31.5,20.7,13.4,71,37,21,30.12,29.94,0,0,0,0.00